createdAt,value
2019-02-02T00:00:57.611Z,990.17
2019-02-02T00:01:57.586Z,990.19
2019-02-02T00:02:57.629Z,990.19
2019-02-02T00:03:57.582Z,990.15
2019-02-02T00:04:57.638Z,990.17
2019-02-02T00:05:57.547Z,990.17
2019-02-02T00:06:57.558Z,990.13
2019-02-02T00:07:57.539Z,990.16
2019-02-02T00:08:57.639Z,990.14
2019-02-02T00:09:57.492Z,990.15
2019-02-02T00:10:57.588Z,990.14
2019-02-02T00:11:57.488Z,990.20
2019-02-02T00:12:57.486Z,990.18
2019-02-02T00:13:57.496Z,990.17
2019-02-02T00:14:57.459Z,990.23
2019-02-02T00:15:57.433Z,990.20
2019-02-02T00:16:57.525Z,990.21
2019-02-02T00:17:57.424Z,990.23
2019-02-02T00:18:57.455Z,990.20
2019-02-02T00:19:57.390Z,990.23
2019-02-02T00:20:57.465Z,990.24
2019-02-02T00:21:57.378Z,990.19
2019-02-02T00:22:57.473Z,990.19
2019-02-02T00:23:57.392Z,990.23
2019-02-02T00:24:57.369Z,990.30
2019-02-02T00:25:57.439Z,990.28
2019-02-02T00:26:57.391Z,990.27
2019-02-02T00:27:57.308Z,990.26
2019-02-02T00:28:57.449Z,990.24
2019-02-02T00:29:57.299Z,990.20
2019-02-02T00:30:57.403Z,990.21
2019-02-02T00:31:57.259Z,990.22
2019-02-02T00:32:57.336Z,990.17
2019-02-02T00:33:57.254Z,990.16
2019-02-02T00:34:57.375Z,990.15
2019-02-02T00:35:57.244Z,990.07
2019-02-02T00:36:59.187Z,990.07
2019-02-02T00:37:57.193Z,990.09
2019-02-02T00:38:57.288Z,990.05
2019-02-02T00:39:57.224Z,990.02
2019-02-02T00:40:57.284Z,990.03
2019-02-02T00:41:57.170Z,990.01
2019-02-02T00:42:57.190Z,990.01
2019-02-02T00:43:57.144Z,990.04
2019-02-02T00:44:57.204Z,990.08
2019-02-02T00:45:57.126Z,990.01
2019-02-02T00:46:57.247Z,990.02
2019-02-02T00:47:57.089Z,990.07
2019-02-02T00:48:57.164Z,990.01
2019-02-02T00:49:57.070Z,989.99
2019-02-02T00:50:57.141Z,989.95
2019-02-02T00:51:57.049Z,989.95
2019-02-02T00:52:57.157Z,989.98
2019-02-02T00:53:57.200Z,989.97
2019-02-02T00:54:59.181Z,989.97
2019-02-02T00:55:57.007Z,990.01
2019-02-02T00:56:59.032Z,989.95
2019-02-02T00:57:56.991Z,989.93
2019-02-02T00:58:58.027Z,989.93
2019-02-02T00:59:57.009Z,989.97
2019-02-02T01:00:57.006Z,989.98
2019-02-02T01:01:56.947Z,990.01
2019-02-02T01:02:57.020Z,990.00
2019-02-02T01:03:56.929Z,989.99
2019-02-02T01:04:56.958Z,990.01
2019-02-02T01:05:56.901Z,990.04
2019-02-02T01:06:56.945Z,990.03
2019-02-02T01:07:56.882Z,990.01
2019-02-02T01:08:56.958Z,990.03
2019-02-02T01:09:56.875Z,990.02
2019-02-02T01:10:56.886Z,990.00
2019-02-02T01:11:56.868Z,989.98
2019-02-02T01:12:56.897Z,989.99
2019-02-02T01:13:56.838Z,989.98
2019-02-02T01:14:56.923Z,989.96
2019-02-02T01:15:56.801Z,989.99
2019-02-02T01:16:56.810Z,989.99
2019-02-02T01:17:56.776Z,990.04
2019-02-02T01:18:56.829Z,990.01
2019-02-02T01:19:56.781Z,990.07
2019-02-02T01:20:56.867Z,990.13
2019-02-02T01:21:56.733Z,990.19
2019-02-02T01:22:56.743Z,990.15
2019-02-02T01:23:56.780Z,990.18
2019-02-02T01:24:56.805Z,990.19
2019-02-02T01:25:56.698Z,990.26
2019-02-02T01:26:56.779Z,990.21
2019-02-02T01:28:04.952Z,990.20
2019-02-02T01:28:57.652Z,990.16
2019-02-02T01:29:56.816Z,990.12
2019-02-02T01:30:56.645Z,990.13
2019-02-02T01:31:56.744Z,990.07
2019-02-02T01:32:56.626Z,990.05
2019-02-02T01:33:56.735Z,990.05
2019-02-02T01:34:56.644Z,990.11
2019-02-02T01:35:56.838Z,990.12
2019-02-02T01:36:56.582Z,990.18
2019-02-02T01:37:56.678Z,990.15
2019-02-02T01:38:56.558Z,990.15
2019-02-02T01:39:56.718Z,990.14
2019-02-02T01:40:56.548Z,990.16
2019-02-02T01:41:56.688Z,990.25
2019-02-02T01:42:56.523Z,990.23
2019-02-02T01:43:56.728Z,990.22
2019-02-02T01:44:56.514Z,990.26
2019-02-02T01:45:57.509Z,990.25
2019-02-02T01:46:56.495Z,990.30
2019-02-02T01:47:56.593Z,990.30
2019-02-02T01:48:56.448Z,990.31
2019-02-02T01:49:56.587Z,990.29
2019-02-02T01:50:56.419Z,990.33
2019-02-02T01:51:56.458Z,990.19
2019-02-02T01:52:56.402Z,990.22
2019-02-02T01:53:56.443Z,990.19
2019-02-02T01:54:56.400Z,990.18
2019-02-02T01:55:56.521Z,990.24
2019-02-02T01:56:56.360Z,990.23
2019-02-02T01:57:56.488Z,990.24
2019-02-02T01:58:56.339Z,990.29
2019-02-02T01:59:56.408Z,990.31
2019-02-02T02:00:56.335Z,990.29
2019-02-02T02:01:56.442Z,990.30
2019-02-02T02:02:56.316Z,990.25
2019-02-02T02:03:56.302Z,990.14
2019-02-02T02:04:56.279Z,990.18
2019-02-02T02:05:56.343Z,990.07
2019-02-02T02:06:56.269Z,990.00
2019-02-02T02:07:56.333Z,989.98
2019-02-02T02:08:56.258Z,990.00
2019-02-02T02:09:56.244Z,989.99
2019-02-02T02:10:58.197Z,989.99
2019-02-02T02:11:56.270Z,990.02
2019-02-02T02:12:56.189Z,990.01
2019-02-02T02:13:56.266Z,990.07
2019-02-02T02:14:56.170Z,990.04
2019-02-02T02:15:56.228Z,990.07
2019-02-02T02:16:56.154Z,990.07
2019-02-02T02:17:56.196Z,990.07
2019-02-02T02:18:56.123Z,990.06
2019-02-02T02:19:56.211Z,990.05
2019-02-02T02:20:56.136Z,990.10
2019-02-02T02:21:56.119Z,990.08
2019-02-02T02:22:56.093Z,990.08
2019-02-02T02:23:56.131Z,990.03
2019-02-02T02:24:56.092Z,990.01
2019-02-02T02:25:56.286Z,990.06
2019-02-02T02:26:56.043Z,990.03
2019-02-02T02:27:56.058Z,990.02
2019-02-02T02:28:56.018Z,990.05
2019-02-02T02:29:56.081Z,990.04
2019-02-02T02:30:56.014Z,990.00
2019-02-02T02:31:57.014Z,990.09
2019-02-02T02:32:55.984Z,990.08
2019-02-02T02:33:55.999Z,990.11
2019-02-02T02:34:55.958Z,990.10
2019-02-02T02:35:56.041Z,990.06
2019-02-02T02:36:55.935Z,990.06
2019-02-02T02:37:56.954Z,990.01
2019-02-02T02:38:55.919Z,990.02
2019-02-02T02:39:55.947Z,990.04
2019-02-02T02:40:55.906Z,990.03
2019-02-02T02:41:55.952Z,990.05
2019-02-02T02:42:55.878Z,990.07
2019-02-02T02:43:55.969Z,990.07
2019-02-02T02:44:55.857Z,990.13
2019-02-02T02:45:55.902Z,990.09
2019-02-02T02:46:55.833Z,990.05
2019-02-02T02:47:55.897Z,989.98
2019-02-02T02:48:55.815Z,990.01
2019-02-02T02:49:55.908Z,990.05
2019-02-02T02:50:55.803Z,990.10
2019-02-02T02:51:55.816Z,990.07
2019-02-02T02:52:55.772Z,990.06
2019-02-02T02:53:55.831Z,990.05
2019-02-02T02:54:55.749Z,990.08
2019-02-02T02:55:55.858Z,990.02
2019-02-02T02:56:55.734Z,989.99
2019-02-02T02:57:55.764Z,989.98
2019-02-02T02:58:55.704Z,990.01
2019-02-02T02:59:55.771Z,989.97
2019-02-02T03:00:55.704Z,990.00
2019-02-02T03:01:55.818Z,989.96
2019-02-02T03:02:55.661Z,990.01
2019-02-02T03:03:55.695Z,989.99
2019-02-02T03:04:55.649Z,989.94
2019-02-02T03:05:55.709Z,989.94
2019-02-02T03:06:56.291Z,989.96
2019-02-02T03:07:55.746Z,989.94
2019-02-02T03:08:55.598Z,989.90
2019-02-02T03:09:55.628Z,989.93
2019-02-02T03:10:55.577Z,989.92
2019-02-02T03:11:55.670Z,989.95
2019-02-02T03:12:55.554Z,989.99
2019-02-02T03:13:55.557Z,990.00
2019-02-02T03:14:55.545Z,990.00
2019-02-02T03:15:55.567Z,990.07
2019-02-02T03:16:55.525Z,990.08
2019-02-02T03:17:55.584Z,990.08
2019-02-02T03:18:55.491Z,990.04
2019-02-02T03:19:55.495Z,990.06
2019-02-02T03:20:55.476Z,990.06
2019-02-02T03:21:55.547Z,990.09
2019-02-02T03:22:55.454Z,990.04
2019-02-02T03:23:55.523Z,990.08
2019-02-02T03:24:55.426Z,990.04
2019-02-02T03:25:55.429Z,990.09
2019-02-02T03:26:55.434Z,990.06
2019-02-02T03:27:55.452Z,990.08
2019-02-02T03:28:55.403Z,990.05
2019-02-02T03:29:55.483Z,990.10
2019-02-02T03:30:55.365Z,990.13
2019-02-02T03:31:55.395Z,990.15
2019-02-02T03:32:55.385Z,990.16
2019-02-02T03:33:55.384Z,990.17
2019-02-02T03:34:55.323Z,990.25
2019-02-02T03:35:55.398Z,990.25
2019-02-02T03:36:55.328Z,990.28
2019-02-02T03:37:55.400Z,990.31
2019-02-02T03:38:55.300Z,990.30
2019-02-02T03:39:55.275Z,990.31
2019-02-02T03:40:55.264Z,990.28
2019-02-02T03:41:55.349Z,990.22
2019-02-02T03:42:55.255Z,990.25
2019-02-02T03:43:55.243Z,990.30
2019-02-02T03:44:55.229Z,990.29
2019-02-02T03:45:55.280Z,990.37
2019-02-02T03:46:55.194Z,990.36
2019-02-02T03:47:55.418Z,990.38
2019-02-02T03:48:55.174Z,990.42
2019-02-02T03:49:55.204Z,990.39
2019-02-02T03:50:55.163Z,990.43
2019-02-02T03:51:55.204Z,990.34
2019-02-02T03:52:55.147Z,990.37
2019-02-02T03:54:07.944Z,990.34
2019-02-02T03:54:56.125Z,990.32
2019-02-02T03:55:55.148Z,990.30
2019-02-02T03:56:55.087Z,990.32
2019-02-02T03:57:55.168Z,990.28
2019-02-02T03:59:06.116Z,990.32
2019-02-02T03:59:56.076Z,990.31
2019-02-02T04:00:55.069Z,990.30
2019-02-02T04:01:55.040Z,990.33
2019-02-02T04:02:55.105Z,990.36
2019-02-02T04:03:55.014Z,990.29
2019-02-02T04:04:55.015Z,990.33
2019-02-02T04:05:54.994Z,990.36
2019-02-02T04:06:55.005Z,990.28
2019-02-02T04:07:54.989Z,990.28
2019-02-02T04:08:55.016Z,990.30
2019-02-02T04:09:54.951Z,990.29
2019-02-02T04:10:55.031Z,990.36
2019-02-02T04:11:54.929Z,990.39
2019-02-02T04:12:54.963Z,990.44
2019-02-02T04:13:54.930Z,990.43
2019-02-02T04:14:54.953Z,990.48
2019-02-02T04:15:54.885Z,990.47
2019-02-02T04:16:54.965Z,990.43
2019-02-02T04:17:54.893Z,990.48
2019-02-02T04:18:54.875Z,990.45
2019-02-02T04:19:54.889Z,990.48
2019-02-02T04:20:54.836Z,990.46
2019-02-02T04:21:54.846Z,990.46
2019-02-02T04:22:54.907Z,990.46
2019-02-02T04:23:54.823Z,990.45
2019-02-02T04:24:54.813Z,990.46
2019-02-02T04:25:54.817Z,990.44
2019-02-02T04:26:54.776Z,990.50
2019-02-02T04:27:54.763Z,990.49
2019-02-02T04:28:54.766Z,990.48
2019-02-02T04:29:55.864Z,990.49
2019-02-02T04:30:54.746Z,990.51
2019-02-02T04:31:54.728Z,990.47
2019-02-02T04:32:54.728Z,990.46
2019-02-02T04:33:54.708Z,990.44
2019-02-02T04:34:54.696Z,990.49
2019-02-02T04:35:54.701Z,990.52
2019-02-02T04:36:54.680Z,990.49
2019-02-02T04:37:54.661Z,990.52
2019-02-02T04:38:54.662Z,990.51
2019-02-02T04:39:54.645Z,990.51
2019-02-02T04:40:54.632Z,990.52
2019-02-02T04:41:54.614Z,990.59
2019-02-02T04:42:54.619Z,990.60
2019-02-02T04:43:54.615Z,990.62
2019-02-02T04:44:54.595Z,990.57
2019-02-02T04:45:54.573Z,990.62
2019-02-02T04:46:54.565Z,990.69
2019-02-02T04:47:54.556Z,990.66
2019-02-02T04:48:54.559Z,990.66
2019-02-02T04:49:54.554Z,990.77
2019-02-02T04:50:54.520Z,990.76
2019-02-02T04:51:54.519Z,990.74
2019-02-02T04:52:54.500Z,990.76
2019-02-02T04:53:54.506Z,990.78
2019-02-02T04:54:54.495Z,990.83
2019-02-02T04:55:54.497Z,990.77
2019-02-02T04:56:54.519Z,990.83
2019-02-02T04:57:54.445Z,990.81
2019-02-02T04:58:54.456Z,990.75
2019-02-02T04:59:54.435Z,990.83
2019-02-02T05:00:54.433Z,990.80
2019-02-02T05:01:54.424Z,990.80
2019-02-02T05:02:54.394Z,990.83
2019-02-02T05:03:54.394Z,990.84
2019-02-02T05:04:54.377Z,990.85
2019-02-02T05:05:54.367Z,990.83
2019-02-02T05:06:54.362Z,990.85
2019-02-02T05:07:54.340Z,990.83
2019-02-02T05:08:54.347Z,990.83
2019-02-02T05:09:54.324Z,990.86
2019-02-02T05:10:54.311Z,990.87
2019-02-02T05:11:54.318Z,990.87
2019-02-02T05:12:54.307Z,990.91
2019-02-02T05:13:54.300Z,990.93
2019-02-02T05:14:54.272Z,990.87
2019-02-02T05:15:54.280Z,990.90
2019-02-02T05:16:54.247Z,990.89
2019-02-02T05:17:54.256Z,990.95
2019-02-02T05:18:54.229Z,990.93
2019-02-02T05:19:54.244Z,990.97
2019-02-02T05:20:54.209Z,990.91
2019-02-02T05:21:54.193Z,990.91
2019-02-02T05:22:54.183Z,990.96
2019-02-02T05:23:54.182Z,990.91
2019-02-02T05:24:54.194Z,990.93
2019-02-02T05:25:54.168Z,990.94
2019-02-02T05:26:54.144Z,990.99
2019-02-02T05:27:54.126Z,990.97
2019-02-02T05:28:54.234Z,990.95
2019-02-02T05:29:54.144Z,990.99
2019-02-02T05:30:54.111Z,990.97
2019-02-02T05:31:54.083Z,990.95
2019-02-02T05:32:54.091Z,991.01
2019-02-02T05:33:54.063Z,991.00
2019-02-02T05:34:54.080Z,991.01
2019-02-02T05:35:54.075Z,991.05
2019-02-02T05:36:54.167Z,991.08
2019-02-02T05:37:54.020Z,991.09
2019-02-02T05:38:54.014Z,991.15
2019-02-02T05:39:54.022Z,991.12
2019-02-02T05:40:54.006Z,991.12
2019-02-02T05:41:53.998Z,991.14
2019-02-02T05:42:53.983Z,991.14
2019-02-02T05:43:53.994Z,991.17
2019-02-02T05:44:53.970Z,991.16
2019-02-02T05:45:53.947Z,991.18
2019-02-02T05:46:53.954Z,991.17
2019-02-02T05:47:53.919Z,991.21
2019-02-02T05:48:53.925Z,991.22
2019-02-02T05:49:53.929Z,991.25
2019-02-02T05:50:53.905Z,991.22
2019-02-02T05:51:53.872Z,991.28
2019-02-02T05:52:53.882Z,991.29
2019-02-02T05:53:53.862Z,991.28
2019-02-02T05:54:53.861Z,991.29
2019-02-02T05:55:53.828Z,991.27
2019-02-02T05:56:53.826Z,991.26
2019-02-02T05:57:53.810Z,991.26
2019-02-02T05:58:53.812Z,991.25
2019-02-02T05:59:53.800Z,991.27
2019-02-02T06:00:53.796Z,991.27
2019-02-02T06:01:53.790Z,991.28
2019-02-02T06:02:53.758Z,991.28
2019-02-02T06:03:53.744Z,991.26
2019-02-02T06:04:53.753Z,991.32
2019-02-02T06:05:53.728Z,991.26
2019-02-02T06:06:53.736Z,991.33
2019-02-02T06:07:53.708Z,991.35
2019-02-02T06:08:53.695Z,991.35
2019-02-02T06:09:53.696Z,991.33
2019-02-02T06:10:53.676Z,991.37
2019-02-02T06:11:53.666Z,991.27
2019-02-02T06:12:53.688Z,991.30
2019-02-02T06:13:53.643Z,991.32
2019-02-02T06:14:53.648Z,991.29
2019-02-02T06:15:53.619Z,991.34
2019-02-02T06:16:53.615Z,991.34
2019-02-02T06:17:53.602Z,991.27
2019-02-02T06:18:53.609Z,991.24
2019-02-02T06:19:53.618Z,991.21
2019-02-02T06:20:53.577Z,991.22
2019-02-02T06:21:53.556Z,991.20
2019-02-02T06:22:53.552Z,991.20
2019-02-02T06:23:53.541Z,991.17
2019-02-02T06:24:53.550Z,991.20
2019-02-02T06:25:53.518Z,991.20
2019-02-02T06:26:53.645Z,991.23
2019-02-02T06:27:53.497Z,991.19
2019-02-02T06:28:53.490Z,991.22
2019-02-02T06:30:03.726Z,991.24
2019-02-02T06:30:54.478Z,991.22
2019-02-02T06:31:53.474Z,991.30
2019-02-02T06:32:53.464Z,991.27
2019-02-02T06:33:53.438Z,991.25
2019-02-02T06:34:53.420Z,991.34
2019-02-02T06:35:53.439Z,991.35
2019-02-02T06:36:53.394Z,991.35
2019-02-02T06:37:53.397Z,991.28
2019-02-02T06:38:53.375Z,991.33
2019-02-02T06:39:53.369Z,991.32
2019-02-02T06:40:53.366Z,991.38
2019-02-02T06:41:53.364Z,991.37
2019-02-02T06:42:53.332Z,991.43
2019-02-02T06:43:53.366Z,991.40
2019-02-02T06:44:53.435Z,991.40
2019-02-02T06:45:53.382Z,991.42
2019-02-02T06:46:53.304Z,991.45
2019-02-02T06:47:53.294Z,991.49
2019-02-02T06:48:53.269Z,991.47
2019-02-02T06:49:53.267Z,991.56
2019-02-02T06:50:53.282Z,991.57
2019-02-02T06:51:53.247Z,991.60
2019-02-02T06:52:53.229Z,991.58
2019-02-02T06:53:53.246Z,991.62
2019-02-02T06:54:53.205Z,991.65
2019-02-02T06:55:53.216Z,991.70
2019-02-02T06:56:53.208Z,991.73
2019-02-02T06:57:53.310Z,991.73
2019-02-02T06:58:53.161Z,991.73
2019-02-02T06:59:53.169Z,991.82
2019-02-02T07:00:53.159Z,991.78
2019-02-02T07:01:53.226Z,991.82
2019-02-02T07:02:53.128Z,991.80
2019-02-02T07:03:53.139Z,991.84
2019-02-02T07:04:53.118Z,991.86
2019-02-02T07:05:53.500Z,991.93
2019-02-02T07:06:53.132Z,991.90
2019-02-02T07:07:53.165Z,991.96
2019-02-02T07:08:53.092Z,991.95
2019-02-02T07:09:53.147Z,992.02
2019-02-02T07:10:53.096Z,992.01
2019-02-02T07:11:53.104Z,992.04
2019-02-02T07:12:53.018Z,992.06
2019-02-02T07:13:53.139Z,992.07
2019-02-02T07:14:53.012Z,992.10
2019-02-02T07:15:54.017Z,992.11
2019-02-02T07:16:52.979Z,992.16
2019-02-02T07:17:53.968Z,992.13
2019-02-02T07:18:52.955Z,992.18
2019-02-02T07:19:53.949Z,992.18
2019-02-02T07:20:52.948Z,992.19
2019-02-02T07:21:52.952Z,992.16
2019-02-02T07:22:52.911Z,992.26
2019-02-02T07:23:52.968Z,992.24
2019-02-02T07:24:52.894Z,992.27
2019-02-02T07:25:53.110Z,992.31
2019-02-02T07:26:52.865Z,992.29
2019-02-02T07:27:52.900Z,992.30
2019-02-02T07:28:52.860Z,992.39
2019-02-02T07:29:52.919Z,992.30
2019-02-02T07:30:52.849Z,992.35
2019-02-02T07:31:52.924Z,992.38
2019-02-02T07:32:52.818Z,992.38
2019-02-02T07:33:52.840Z,992.41
2019-02-02T07:34:52.791Z,992.41
2019-02-02T07:35:54.228Z,992.47
2019-02-02T07:36:52.766Z,992.50
2019-02-02T07:37:52.884Z,992.56
2019-02-02T07:38:52.738Z,992.54
2019-02-02T07:39:52.785Z,992.55
2019-02-02T07:40:52.732Z,992.56
2019-02-02T07:41:52.807Z,992.56
2019-02-02T07:42:52.701Z,992.57
2019-02-02T07:43:52.798Z,992.47
2019-02-02T07:44:52.691Z,992.53
2019-02-02T07:45:52.825Z,992.56
2019-02-02T07:46:52.668Z,992.56
2019-02-02T07:47:52.726Z,992.57
2019-02-02T07:48:52.646Z,992.51
2019-02-02T07:49:52.751Z,992.55
2019-02-02T07:50:52.619Z,992.61
2019-02-02T07:51:52.703Z,992.59
2019-02-02T07:52:52.605Z,992.59
2019-02-02T07:53:52.661Z,992.53
2019-02-02T07:54:52.570Z,992.58
2019-02-02T07:55:52.764Z,992.60
2019-02-02T07:56:52.568Z,992.65
2019-02-02T07:57:52.616Z,992.60
2019-02-02T07:58:52.543Z,992.61
2019-02-02T07:59:52.600Z,992.65
2019-02-02T08:00:52.515Z,992.62
2019-02-02T08:01:53.526Z,992.67
2019-02-02T08:02:52.502Z,992.70
2019-02-02T08:03:53.497Z,992.70
2019-02-02T08:04:52.481Z,992.72
2019-02-02T08:05:53.468Z,992.80
2019-02-02T08:06:52.463Z,992.75
2019-02-02T08:07:52.579Z,992.75
2019-02-02T08:08:52.437Z,992.68
2019-02-02T08:09:52.466Z,992.73
2019-02-02T08:10:55.072Z,992.71
2019-02-02T08:11:52.503Z,992.68
2019-02-02T08:12:52.388Z,992.68
2019-02-02T08:13:52.412Z,992.67
2019-02-02T08:14:52.362Z,992.67
2019-02-02T08:15:52.407Z,992.65
2019-02-02T08:16:52.777Z,992.69
2019-02-02T08:17:52.441Z,992.67
2019-02-02T08:18:52.315Z,992.65
2019-02-02T08:19:52.328Z,992.62
2019-02-02T08:20:52.299Z,992.63
2019-02-02T08:21:52.343Z,992.63
2019-02-02T08:22:52.308Z,992.67
2019-02-02T08:23:52.374Z,992.72
2019-02-02T08:24:52.258Z,992.70
2019-02-02T08:25:52.267Z,992.72
2019-02-02T08:26:52.255Z,992.75
2019-02-02T08:27:52.309Z,992.75
2019-02-02T08:28:52.232Z,992.85
2019-02-02T08:29:52.297Z,992.88
2019-02-02T08:30:52.919Z,992.88
2019-02-02T08:31:52.205Z,992.89
2019-02-02T08:32:52.205Z,992.97
2019-02-02T08:33:52.218Z,992.91
2019-02-02T08:34:52.148Z,992.89
2019-02-02T08:35:52.242Z,992.90
2019-02-02T08:36:52.129Z,992.86
2019-02-02T08:37:52.171Z,992.86
2019-02-02T08:38:52.106Z,992.88
2019-02-02T08:39:52.159Z,992.82
2019-02-02T08:40:52.083Z,992.82
2019-02-02T08:41:52.173Z,992.85
2019-02-02T08:42:52.077Z,992.86
2019-02-02T08:43:52.082Z,992.90
2019-02-02T08:44:52.049Z,992.85
2019-02-02T08:45:52.096Z,992.89
2019-02-02T08:46:52.019Z,992.95
2019-02-02T08:47:52.161Z,992.98
2019-02-02T08:48:52.006Z,993.04
2019-02-02T08:49:54.035Z,993.07
2019-02-02T08:50:51.984Z,993.05
2019-02-02T08:51:53.181Z,993.12
2019-02-02T08:52:52.383Z,993.10
2019-02-02T08:53:52.102Z,993.11
2019-02-02T08:54:52.005Z,993.17
2019-02-02T08:55:52.401Z,993.10
2019-02-02T08:56:52.005Z,993.21
2019-02-02T08:57:52.001Z,993.17
2019-02-02T08:58:51.897Z,993.20
2019-02-02T08:59:52.912Z,993.26
2019-02-02T09:01:03.367Z,993.32
2019-02-02T09:01:52.882Z,993.27
2019-02-02T09:02:52.035Z,993.39
2019-02-02T09:03:51.843Z,993.36
2019-02-02T09:04:51.964Z,993.39
2019-02-02T09:05:51.844Z,993.46
2019-02-02T09:06:51.834Z,993.47
2019-02-02T09:07:51.844Z,993.41
2019-02-02T09:08:52.002Z,993.40
2019-02-02T09:09:51.802Z,993.48
2019-02-02T09:10:51.862Z,993.48
2019-02-02T09:11:51.757Z,993.44
2019-02-02T09:12:51.775Z,993.45
2019-02-02T09:13:51.760Z,993.46
2019-02-02T09:14:51.813Z,993.47
2019-02-02T09:15:51.714Z,993.46
2019-02-02T09:16:51.803Z,993.50
2019-02-02T09:17:51.692Z,993.58
2019-02-02T09:18:51.749Z,993.56
2019-02-02T09:19:51.680Z,993.66
2019-02-02T09:20:51.731Z,993.69
2019-02-02T09:21:51.646Z,993.64
2019-02-02T09:23:02.145Z,993.64
2019-02-02T09:23:52.641Z,993.69
2019-02-02T09:24:52.052Z,993.65
2019-02-02T09:25:51.604Z,993.73
2019-02-02T09:26:51.660Z,993.66
2019-02-02T09:27:51.604Z,993.66
2019-02-02T09:28:51.598Z,993.65
2019-02-02T09:29:51.568Z,993.64
2019-02-02T09:30:51.588Z,993.66
2019-02-02T09:31:51.576Z,993.62
2019-02-02T09:32:51.604Z,993.67
2019-02-02T09:33:51.542Z,993.67
2019-02-02T09:34:51.627Z,993.68
2019-02-02T09:35:51.501Z,993.73
2019-02-02T09:36:51.535Z,993.78
2019-02-02T09:37:51.487Z,993.75
2019-02-02T09:38:51.584Z,993.73
2019-02-02T09:39:51.457Z,993.72
2019-02-02T09:40:52.474Z,993.76
2019-02-02T09:41:51.434Z,993.73
2019-02-02T09:42:51.476Z,993.72
2019-02-02T09:43:51.432Z,993.76
2019-02-02T09:44:52.518Z,993.76
2019-02-02T09:45:51.419Z,993.73
2019-02-02T09:46:52.414Z,993.79
2019-02-02T09:47:51.372Z,993.80
2019-02-02T09:48:51.406Z,993.78
2019-02-02T09:49:51.363Z,993.81
2019-02-02T09:50:51.416Z,993.86
2019-02-02T09:51:51.330Z,993.86
2019-02-02T09:52:51.476Z,993.86
2019-02-02T09:53:53.515Z,993.86
2019-02-02T09:54:51.363Z,993.82
2019-02-02T09:55:51.298Z,993.78
2019-02-02T09:56:51.412Z,993.81
2019-02-02T09:57:55.210Z,993.79
2019-02-02T09:58:51.273Z,993.76
2019-02-02T09:59:51.250Z,993.76
2019-02-02T10:00:51.282Z,993.74
2019-02-02T10:01:51.221Z,993.74
2019-02-02T10:02:51.302Z,993.82
2019-02-02T10:03:51.217Z,993.75
2019-02-02T10:04:51.235Z,993.71
2019-02-02T10:05:51.183Z,993.71
2019-02-02T10:06:51.225Z,993.69
2019-02-02T10:07:51.168Z,993.67
2019-02-02T10:08:51.233Z,993.74
2019-02-02T10:09:51.204Z,993.77
2019-02-02T10:10:51.154Z,993.76
2019-02-02T10:11:51.111Z,993.73
2019-02-02T10:12:51.158Z,993.74
2019-02-02T10:13:52.180Z,993.74
2019-02-02T10:14:51.201Z,993.74
2019-02-02T10:15:51.070Z,993.73
2019-02-02T10:16:51.082Z,993.74
2019-02-02T10:17:51.046Z,993.78
2019-02-02T10:18:51.098Z,993.76
2019-02-02T10:19:51.036Z,993.76
2019-02-02T10:20:51.121Z,993.81
2019-02-02T10:21:51.005Z,993.81
2019-02-02T10:22:51.040Z,993.88
2019-02-02T10:23:50.982Z,993.82
2019-02-02T10:24:53.093Z,993.87
2019-02-02T10:25:50.975Z,993.89
2019-02-02T10:27:00.358Z,993.95
2019-02-02T10:27:50.946Z,993.96
2019-02-02T10:28:50.967Z,993.96
2019-02-02T10:29:50.920Z,993.98
2019-02-02T10:30:52.970Z,994.01
2019-02-02T10:31:50.892Z,994.00
2019-02-02T10:32:50.996Z,993.96
2019-02-02T10:33:50.877Z,993.99
2019-02-02T10:34:50.905Z,993.97
2019-02-02T10:35:50.862Z,993.97
2019-02-02T10:36:50.918Z,993.96
2019-02-02T10:37:50.829Z,993.91
2019-02-02T10:38:50.927Z,993.95
2019-02-02T10:39:50.835Z,993.97
2019-02-02T10:40:50.893Z,994.02
2019-02-02T10:41:50.796Z,994.03
2019-02-02T10:42:50.851Z,993.99
2019-02-02T10:43:50.801Z,994.06
2019-02-02T10:44:50.865Z,994.02
2019-02-02T10:45:50.760Z,994.00
2019-02-02T10:46:50.777Z,994.01
2019-02-02T10:47:50.727Z,993.95
2019-02-02T10:48:50.790Z,994.03
2019-02-02T10:49:50.726Z,994.05
2019-02-02T10:50:50.785Z,994.09
2019-02-02T10:51:50.682Z,993.99
2019-02-02T10:52:50.714Z,994.01
2019-02-02T10:53:50.662Z,994.06
2019-02-02T10:54:50.728Z,994.05
2019-02-02T10:55:50.668Z,994.00
2019-02-02T10:56:50.640Z,994.05
2019-02-02T10:57:50.622Z,994.01
2019-02-02T10:58:50.657Z,994.08
2019-02-02T10:59:50.599Z,994.03
2019-02-02T11:00:50.711Z,994.01
2019-02-02T11:01:51.447Z,994.03
2019-02-02T11:02:50.579Z,993.99
2019-02-02T11:03:50.562Z,993.99
2019-02-02T11:04:53.439Z,993.96
2019-02-02T11:05:50.616Z,994.02
2019-02-02T11:06:50.672Z,994.01
2019-02-02T11:07:50.600Z,994.00
2019-02-02T11:08:50.517Z,994.05
2019-02-02T11:09:50.515Z,994.05
2019-02-02T11:10:54.153Z,994.09
2019-02-02T11:11:50.475Z,994.12
2019-02-02T11:12:50.581Z,994.07
2019-02-02T11:13:50.487Z,994.12
2019-02-02T11:14:50.516Z,994.13
2019-02-02T11:15:50.453Z,994.03
2019-02-02T11:16:50.509Z,994.19
2019-02-02T11:17:50.618Z,994.06
2019-02-02T11:18:51.418Z,994.17
2019-02-02T11:19:50.447Z,994.19
2019-02-02T11:20:50.582Z,994.14
2019-02-02T11:21:50.392Z,994.13
2019-02-02T11:22:50.421Z,994.11
2019-02-02T11:23:50.342Z,994.12
2019-02-02T11:24:50.476Z,994.22
2019-02-02T11:25:50.335Z,994.24
2019-02-02T11:26:50.335Z,994.20
2019-02-02T11:27:50.322Z,994.21
2019-02-02T11:28:50.426Z,994.21
2019-02-02T11:29:50.307Z,994.24
2019-02-02T11:30:52.217Z,994.28
2019-02-02T11:31:50.247Z,994.27
2019-02-02T11:32:50.272Z,994.31
2019-02-02T11:33:50.230Z,994.30
2019-02-02T11:34:50.288Z,994.38
2019-02-02T11:35:50.234Z,994.40
2019-02-02T11:36:50.300Z,994.45
2019-02-02T11:37:50.182Z,994.46
2019-02-02T11:38:50.211Z,994.52
2019-02-02T11:39:50.170Z,994.53
2019-02-02T11:40:50.251Z,994.50
2019-02-02T11:41:50.138Z,994.58
2019-02-02T11:42:50.243Z,994.59
2019-02-02T11:43:50.125Z,994.60
2019-02-02T11:44:50.150Z,994.59
2019-02-02T11:45:50.106Z,994.59
2019-02-02T11:46:50.195Z,994.63
2019-02-02T11:47:50.077Z,994.69
2019-02-02T11:48:50.080Z,994.62
2019-02-02T11:49:50.054Z,994.67
2019-02-02T11:50:50.088Z,994.64
2019-02-02T11:51:50.047Z,994.68
2019-02-02T11:52:50.104Z,994.78
2019-02-02T11:53:50.012Z,994.73
2019-02-02T11:54:50.013Z,994.75
2019-02-02T11:55:49.992Z,994.68
2019-02-02T11:56:52.120Z,994.68
2019-02-02T11:57:50.232Z,994.75
2019-02-02T11:58:58.974Z,994.75
2019-02-02T11:59:49.946Z,994.69
2019-02-02T12:00:49.952Z,994.74
2019-02-02T12:01:49.938Z,994.73
2019-02-02T12:02:57.448Z,994.77
2019-02-02T12:03:49.909Z,994.81
2019-02-02T12:04:52.333Z,994.89
2019-02-02T12:05:49.881Z,994.86
2019-02-02T12:06:49.918Z,994.86
2019-02-02T12:07:49.880Z,994.90
2019-02-02T12:08:49.909Z,994.84
2019-02-02T12:09:49.851Z,994.85
2019-02-02T12:10:49.921Z,994.86
2019-02-02T12:11:49.827Z,994.89
2019-02-02T12:12:49.835Z,994.89
2019-02-02T12:13:49.798Z,994.89
2019-02-02T12:14:49.846Z,994.85
2019-02-02T12:15:49.782Z,994.89
2019-02-02T12:16:49.895Z,994.86
2019-02-02T12:17:49.752Z,994.82
2019-02-02T12:18:49.771Z,994.84
2019-02-02T12:19:49.731Z,994.82
2019-02-02T12:20:49.783Z,994.84
2019-02-02T12:21:49.730Z,994.85
2019-02-02T12:22:49.798Z,994.88
2019-02-02T12:23:49.686Z,994.85
2019-02-02T12:24:49.708Z,994.83
2019-02-02T12:25:49.668Z,994.84
2019-02-02T12:26:49.675Z,994.82
2019-02-02T12:27:49.653Z,994.83
2019-02-02T12:28:49.734Z,994.85